Time;durP1;ratioP1;P1;durP2;ratioP2;P2;SDS_P1;SDS_P2;PMS_P1;PMS_P2;Temp;Humidity;BMP_temperature;BMP_pressure;BME280_temperature;BME280_humidity;BME280_pressure;Samples;Min_cycle;Max_cycle;Signal;HPM_P1;HPM_P2
2022/09/29 00:02:07;;;;;;;;;6.75;6.75;;;;;;;;5084497;28;45473;-76
2022/09/29 00:04:33;;;;;;;;;6.75;6.75;;;;;;;;5084849;28;45451;-73
2022/09/29 00:06:58;;;;;;;;;6.50;6.50;;;;;;;;5084179;28;45311;-74
2022/09/29 00:09:23;;;;;;;;;6.25;6.25;;;;;;;;5082296;28;45521;-75
2022/09/29 00:11:52;;;;;;;;;6.00;6.00;;;;;;;;5082995;28;45431;-73
2022/09/29 00:14:17;;;;;;;;;6.00;6.00;;;;;;;;5062705;28;45337;-74
2022/09/29 00:16:42;;;;;;;;;7.00;7.00;;;;;;;;5079963;28;45254;-74
2022/09/29 00:19:08;;;;;;;;;4.25;4.25;;;;;;;;5079937;28;45364;-74
2022/09/29 00:21:33;;;;;;;;;6.75;6.75;;;;;;;;5079560;28;45349;-73
2022/09/29 00:23:59;;;;;;;;;4.00;4.00;;;;;;;;5080023;28;45328;-74
2022/09/29 00:26:24;;;;;;;;;5.50;5.50;;;;;;;;5061245;28;45236;-74
2022/09/29 00:28:52;;;;;;;;;10.75;9.75;;;;;;;;5079664;28;45566;-76
2022/09/29 00:31:17;;;;;;;;;3.25;3.25;;;;;;;;5080661;28;45540;-74
2022/09/29 00:33:43;;;;;;;;;4.50;4.50;;;;;;;;5079622;28;45482;-74
2022/09/29 00:36:12;;;;;;;;;5.25;5.25;;;;;;;;5079270;28;45405;-75
2022/09/29 00:38:37;;;;;;;;;3.00;3.00;;;;;;;;5080795;28;45595;-75
2022/09/29 00:41:04;;;;;;;;;4.00;4.00;;;;;;;;5080419;28;46487;-74
2022/09/29 00:43:53;;;;;;;;;6.00;6.00;;;;;;;;5081140;28;45257;-74
2022/09/29 00:46:25;;;;;;;;;6.00;6.00;;;;;;;;5057468;28;45507;-75
2022/09/29 00:48:52;;;;;;;;;4.75;4.75;;;;;;;;5078874;28;45255;-75
2022/09/29 00:51:17;;;;;;;;;5.00;5.00;;;;;;;;5080220;27;45759;-75
2022/09/29 00:53:43;;;;;;;;;4.50;4.50;;;;;;;;5063850;28;45589;-75
2022/09/29 00:56:11;;;;;;;;;3.75;3.75;;;;;;;;5084641;28;45251;-75
2022/09/29 00:58:39;;;;;;;;;4.00;4.00;;;;;;;;5081308;28;45667;-74
2022/09/29 01:01:04;;;;;;;;;6.25;5.25;;;;;;;;5080313;28;45541;-75
2022/09/29 01:03:32;;;;;;;;;4.00;4.00;;;;;;;;5080720;28;45277;-74
2022/09/29 01:06:04;;;;;;;;;3.50;3.50;;;;;;;;5083681;28;45429;-74
2022/09/29 01:08:34;;;;;;;;;5.00;5.00;;;;;;;;5083789;28;45339;-74
2022/09/29 01:11:00;;;;;;;;;4.00;4.00;;;;;;;;5083708;28;46547;-74
2022/09/29 01:13:27;;;;;;;;;4.00;4.00;;;;;;;;5084091;27;45370;-75
2022/09/29 01:15:53;;;;;;;;;4.00;4.00;;;;;;;;5084806;28;45317;-73
2022/09/29 01:18:18;;;;;;;;;4.00;4.00;;;;;;;;5067556;28;45407;-75
2022/09/29 01:20:59;;;;;;;;;5.00;5.00;;;;;;;;5082971;28;45461;-74
2022/09/29 01:23:48;;;;;;;;;4.50;4.50;;;;;;;;5080429;28;45323;-74
2022/09/29 01:26:13;;;;;;;;;5.50;5.50;;;;;;;;5072468;28;45365;-76
2022/09/29 01:28:41;;;;;;;;;7.50;7.50;;;;;;;;5079628;28;45616;-74
2022/09/29 01:31:25;;;;;;;;;2.00;2.00;;;;;;;;5060119;28;46133;-75
2022/09/29 01:34:12;;;;;;;;;1.25;1.25;;;;;;;;5078488;28;45270;-75
2022/09/29 01:36:51;;;;;;;;;3.00;3.00;;;;;;;;5081620;28;45271;-75
2022/09/29 01:39:25;;;;;;;;;4.00;4.00;;;;;;;;5082114;28;45316;-75
2022/09/29 01:41:56;;;;;;;;;2.50;2.50;;;;;;;;5079524;28;45419;-74
2022/09/29 01:44:35;;;;;;;;;3.00;3.00;;;;;;;;5081538;28;45351;-77
2022/09/29 01:47:09;;;;;;;;;3.00;3.00;;;;;;;;5079432;28;45259;-75
2022/09/29 01:49:35;;;;;;;;;4.00;4.00;;;;;;;;5079678;28;45398;-74
2022/09/29 01:52:05;;;;;;;;;4.00;4.00;;;;;;;;5080104;28;45628;-75
2022/09/29 01:54:59;;;;;;;;;5.00;5.00;;;;;;;;5078732;27;45474;-75
2022/09/29 01:57:29;;;;;;;;;4.00;4.00;;;;;;;;5064049;28;45348;-75
2022/09/29 02:00:12;;;;;;;;;3.00;3.00;;;;;;;;5077843;28;45350;-74
2022/09/29 02:02:44;;;;;;;;;4.00;4.00;;;;;;;;5081901;28;46629;-75
2022/09/29 02:05:16;;;;;;;;;4.25;4.25;;;;;;;;5083136;28;45189;-76
2022/09/29 02:07:43;;;;;;;;;2.50;2.50;;;;;;;;5081707;28;45284;-75
2022/09/29 02:10:12;;;;;;;;;2.50;2.50;;;;;;;;5080223;28;45576;-75
2022/09/29 02:12:39;;;;;;;;;2.50;2.50;;;;;;;;5078860;28;46121;-74
2022/09/29 02:15:06;;;;;;;;;4.00;4.00;;;;;;;;5080058;28;45376;-75
2022/09/29 02:17:39;;;;;;;;;3.00;3.00;;;;;;;;5078543;28;45239;-76
2022/09/29 02:20:05;;;;;;;;;3.00;3.00;;;;;;;;5080106;28;45255;-76
2022/09/29 02:22:31;;;;;;;;;3.00;3.00;;;;;;;;5078760;28;46311;-76
2022/09/29 02:24:58;;;;;;;;;2.00;2.00;;;;;;;;5077021;28;45366;-75
2022/09/29 02:27:24;;;;;;;;;3.25;3.25;;;;;;;;5076743;28;45279;-74
2022/09/29 02:29:49;;;;;;;;;4.00;4.00;;;;;;;;5077181;28;45210;-75
2022/09/29 02:32:15;;;;;;;;;4.25;4.25;;;;;;;;5077779;28;45782;-75
2022/09/29 02:34:44;;;;;;;;;5.00;5.00;;;;;;;;5077902;28;45399;-75
2022/09/29 02:37:26;;;;;;;;;2.00;2.00;;;;;;;;5078335;27;45330;-76
2022/09/29 02:40:01;;;;;;;;;5.25;5.25;;;;;;;;5079698;28;45400;-75
2022/09/29 02:42:45;;;;;;;;;3.25;3.00;;;;;;;;5079616;27;46581;-75
2022/09/29 02:45:28;;;;;;;;;2.75;2.75;;;;;;;;5061469;28;45879;-76
2022/09/29 02:47:54;;;;;;;;;4.75;4.75;;;;;;;;5080118;28;45215;-74
2022/09/29 02:50:28;;;;;;;;;6.00;6.00;;;;;;;;5060283;28;45248;-74
2022/09/29 02:52:58;;;;;;;;;3.50;3.50;;;;;;;;5077393;28;45450;-77
2022/09/29 02:55:32;;;;;;;;;4.00;4.00;;;;;;;;5078527;28;45394;-75
2022/09/29 02:58:00;;;;;;;;;2.50;2.50;;;;;;;;5078073;28;45331;-74
2022/09/29 03:00:26;;;;;;;;;2.00;2.00;;;;;;;;5079514;28;45440;-73
2022/09/29 03:02:51;;;;;;;;;3.00;3.00;;;;;;;;5077461;28;46405;-75
2022/09/29 03:05:18;;;;;;;;;3.00;3.00;;;;;;;;5076948;28;45293;-74
2022/09/29 03:07:44;;;;;;;;;2.00;2.00;;;;;;;;5076827;28;45276;-75
2022/09/29 03:10:10;;;;;;;;;2.50;2.50;;;;;;;;5077013;28;45595;-75
2022/09/29 03:12:36;;;;;;;;;2.00;2.00;;;;;;;;5078578;28;45481;-75
2022/09/29 03:15:01;;;;;;;;;4.00;4.00;;;;;;;;5080601;27;45316;-75
2022/09/29 03:17:26;;;;;;;;;2.00;2.00;;;;;;;;5080914;28;45297;-75
2022/09/29 03:19:51;;;;;;;;;2.75;2.75;;;;;;;;5083612;28;45281;-74
2022/09/29 03:22:18;;;;;;;;;2.50;2.50;;;;;;;;5080008;28;45433;-75
2022/09/29 03:24:43;;;;;;;;;2.50;2.50;;;;;;;;5079594;28;45450;-75
2022/09/29 03:27:11;;;;;;;;;2.50;2.50;;;;;;;;5079871;28;45871;-76
2022/09/29 03:29:37;;;;;;;;;2.00;2.00;;;;;;;;5080269;28;45596;-77
2022/09/29 03:32:03;;;;;;;;;4.50;4.50;;;;;;;;5080359;28;45430;-74
2022/09/29 03:34:28;;;;;;;;;4.00;4.00;;;;;;;;5065600;28;45917;-75
2022/09/29 03:36:54;;;;;;;;;4.50;4.50;;;;;;;;5067114;28;45289;-74
2022/09/29 03:39:19;;;;;;;;;3.00;3.00;;;;;;;;5082758;28;45142;-76
2022/09/29 03:41:45;;;;;;;;;3.25;3.25;;;;;;;;5081230;28;45402;-74
2022/09/29 03:44:10;;;;;;;;;2.00;2.00;;;;;;;;5080806;27;45190;-73
2022/09/29 03:46:35;;;;;;;;;3.00;3.00;;;;;;;;5080370;28;45247;-76
2022/09/29 03:49:00;;;;;;;;;1.50;1.50;;;;;;;;5083284;28;45289;-75
2022/09/29 03:51:26;;;;;;;;;2.00;2.00;;;;;;;;5063226;28;45482;-76
2022/09/29 03:53:51;;;;;;;;;3.00;3.00;;;;;;;;5082018;28;45236;-76
2022/09/29 03:56:16;;;;;;;;;4.00;4.00;;;;;;;;5081265;28;45271;-76
2022/09/29 03:58:41;;;;;;;;;3.75;3.75;;;;;;;;5082103;28;45330;-76
2022/09/29 04:01:07;;;;;;;;;11.00;11.00;;;;;;;;5081687;27;45436;-74
2022/09/29 04:03:32;;;;;;;;;4.00;4.00;;;;;;;;5080370;27;45313;-75
2022/09/29 04:05:57;;;;;;;;;4.25;4.25;;;;;;;;5062233;28;45444;-75
2022/09/29 04:08:22;;;;;;;;;4.00;4.00;;;;;;;;5081363;28;45294;-74
2022/09/29 04:10:48;;;;;;;;;3.00;3.00;;;;;;;;5061963;28;47288;-76
2022/09/29 04:13:13;;;;;;;;;3.00;3.00;;;;;;;;5080489;28;45317;-77
2022/09/29 04:15:39;;;;;;;;;5.00;5.00;;;;;;;;5079500;28;45290;-76
2022/09/29 04:18:04;;;;;;;;;4.25;4.25;;;;;;;;5080996;28;45586;-75
2022/09/29 04:20:30;;;;;;;;;4.00;4.00;;;;;;;;5079253;27;46031;-76
2022/09/29 04:22:55;;;;;;;;;2.25;2.25;;;;;;;;5081315;28;45254;-77
2022/09/29 04:25:21;;;;;;;;;3.25;3.25;;;;;;;;5079807;28;45318;-76
2022/09/29 04:27:46;;;;;;;;;4.25;4.25;;;;;;;;5081190;28;45921;-75
2022/09/29 04:30:11;;;;;;;;;6.50;6.00;;;;;;;;5079544;28;45351;-75
2022/09/29 04:32:36;;;;;;;;;5.00;5.00;;;;;;;;5079315;28;45327;-74
2022/09/29 04:35:02;;;;;;;;;3.00;3.00;;;;;;;;5061240;28;45385;-75
2022/09/29 04:37:27;;;;;;;;;5.00;5.00;;;;;;;;5079372;27;45358;-76
2022/09/29 04:39:53;;;;;;;;;6.00;6.00;;;;;;;;5079619;28;45501;-74
2022/09/29 04:42:18;;;;;;;;;6.00;6.00;;;;;;;;5060013;28;45320;-76
2022/09/29 04:44:43;;;;;;;;;5.50;5.50;;;;;;;;5060224;28;45440;-74
2022/09/29 04:47:09;;;;;;;;;6.00;6.00;;;;;;;;5080991;28;45350;-75
2022/09/29 04:49:34;;;;;;;;;5.00;5.00;;;;;;;;5079277;28;46340;-74
2022/09/29 04:51:59;;;;;;;;;5.00;5.00;;;;;;;;5082183;28;45178;-73
2022/09/29 04:54:28;;;;;;;;;4.75;4.75;;;;;;;;5080020;27;45275;-74
2022/09/29 04:56:53;;;;;;;;;5.25;5.25;;;;;;;;5079093;28;45537;-76
2022/09/29 04:59:18;;;;;;;;;5.25;5.25;;;;;;;;5077780;28;45305;-75
2022/09/29 05:01:44;;;;;;;;;5.00;5.00;;;;;;;;5077978;28;45427;-75
2022/09/29 05:04:12;;;;;;;;;6.25;6.25;;;;;;;;5079298;28;45328;-75
2022/09/29 05:06:38;;;;;;;;;7.75;7.75;;;;;;;;5081085;28;45514;-74
2022/09/29 05:09:04;;;;;;;;;8.25;8.25;;;;;;;;5079755;28;46187;-75
2022/09/29 05:11:29;;;;;;;;;6.25;6.25;;;;;;;;5079728;28;45353;-75
2022/09/29 05:13:54;;;;;;;;;6.75;6.75;;;;;;;;5079227;28;45572;-73
2022/09/29 05:16:19;;;;;;;;;8.50;8.50;;;;;;;;5079132;28;45505;-74
2022/09/29 05:18:45;;;;;;;;;10.25;10.25;;;;;;;;5080033;28;45692;-75
2022/09/29 05:21:10;;;;;;;;;4.00;4.00;;;;;;;;5081834;28;45248;-74
2022/09/29 05:23:35;;;;;;;;;6.00;6.00;;;;;;;;5080438;28;45243;-75
2022/09/29 05:26:04;;;;;;;;;7.25;7.25;;;;;;;;5064041;28;45669;-74
2022/09/29 05:28:30;;;;;;;;;6.00;6.00;;;;;;;;5082357;28;46169;-75
2022/09/29 05:30:59;;;;;;;;;6.25;6.25;;;;;;;;5082529;28;45364;-75
2022/09/29 05:33:24;;;;;;;;;5.25;5.25;;;;;;;;5081242;28;45323;-74
2022/09/29 05:35:50;;;;;;;;;3.00;3.00;;;;;;;;5080410;28;45636;-75
2022/09/29 05:38:15;;;;;;;;;7.00;7.00;;;;;;;;5078437;28;45643;-75
2022/09/29 05:40:40;;;;;;;;;7.25;7.25;;;;;;;;5078857;28;45508;-76
2022/09/29 05:43:06;;;;;;;;;6.00;6.00;;;;;;;;5081400;28;45381;-76
2022/09/29 05:45:31;;;;;;;;;4.50;4.50;;;;;;;;5081160;28;45400;-74
2022/09/29 05:47:56;;;;;;;;;5.75;5.75;;;;;;;;5082218;28;46122;-74
2022/09/29 05:50:22;;;;;;;;;4.75;4.75;;;;;;;;5081673;28;45530;-75
2022/09/29 05:52:48;;;;;;;;;5.50;5.50;;;;;;;;5063396;28;45506;-75
2022/09/29 05:55:14;;;;;;;;;6.25;6.25;;;;;;;;5078999;28;45266;-76
2022/09/29 05:57:39;;;;;;;;;2.00;2.00;;;;;;;;5079567;28;46420;-74
2022/09/29 06:00:06;;;;;;;;;5.50;5.50;;;;;;;;5079821;28;45406;-76
2022/09/29 06:02:31;;;;;;;;;5.75;5.75;;;;;;;;5080046;28;45506;-76
2022/09/29 06:04:56;;;;;;;;;5.25;5.25;;;;;;;;5081371;28;45551;-76
2022/09/29 06:07:22;;;;;;;;;5.00;5.00;;;;;;;;5080241;28;46299;-74
2022/09/29 06:09:47;;;;;;;;;5.75;5.75;;;;;;;;5079916;28;45302;-75
2022/09/29 06:12:12;;;;;;;;;6.00;6.00;;;;;;;;5079411;28;45237;-75
2022/09/29 06:14:37;;;;;;;;;5.00;5.00;;;;;;;;5078582;28;45264;-76
2022/09/29 06:17:03;;;;;;;;;6.75;6.75;;;;;;;;5077000;28;45556;-75
2022/09/29 06:19:28;;;;;;;;;5.25;5.25;;;;;;;;5078466;27;45183;-76
2022/09/29 06:21:53;;;;;;;;;7.00;7.00;;;;;;;;5076175;27;45394;-77
2022/09/29 06:24:18;;;;;;;;;8.00;8.00;;;;;;;;5078584;28;45200;-76
2022/09/29 06:26:43;;;;;;;;;5.25;5.25;;;;;;;;5076778;28;45321;-75
2022/09/29 06:29:09;;;;;;;;;6.00;6.00;;;;;;;;5079240;27;45342;-75
2022/09/29 06:31:34;;;;;;;;;5.00;5.00;;;;;;;;5078644;28;45345;-78
2022/09/29 06:34:02;;;;;;;;;8.75;8.75;;;;;;;;5079728;28;45274;-76
2022/09/29 06:39:12;;;;;;;;;12.00;12.00;;;;;;;;5079819;28;45227;-76
2022/09/29 06:41:38;;;;;;;;;5.75;5.75;;;;;;;;5064778;28;45454;-76
2022/09/29 06:44:03;;;;;;;;;9.00;9.00;;;;;;;;5080008;28;45281;-75
2022/09/29 06:46:29;;;;;;;;;7.00;7.00;;;;;;;;5058109;28;45521;-76
2022/09/29 06:48:55;;;;;;;;;6.50;6.50;;;;;;;;5076585;28;45370;-75
2022/09/29 06:51:23;;;;;;;;;6.00;6.00;;;;;;;;5078273;28;45543;-76
2022/09/29 06:53:49;;;;;;;;;6.25;6.25;;;;;;;;5064122;28;45608;-76
2022/09/29 06:56:14;;;;;;;;;6.50;6.50;;;;;;;;5062421;28;48273;-77
2022/09/29 06:58:39;;;;;;;;;6.00;6.00;;;;;;;;5082164;28;45383;-75
2022/09/29 07:01:05;;;;;;;;;7.00;7.00;;;;;;;;5083193;28;45199;-76
2022/09/29 07:03:30;;;;;;;;;8.75;8.75;;;;;;;;5085914;28;45430;-75
2022/09/29 07:05:56;;;;;;;;;8.50;8.50;;;;;;;;5073359;28;45406;-77
2022/09/29 07:08:21;;;;;;;;;7.50;7.50;;;;;;;;5074708;28;46445;-76
2022/09/29 07:10:47;;;;;;;;;7.75;7.75;;;;;;;;5081744;28;45313;-78
2022/09/29 07:13:12;;;;;;;;;8.75;8.75;;;;;;;;5083450;28;45396;-75
2022/09/29 07:15:37;;;;;;;;;7.25;7.25;;;;;;;;5062824;28;46736;-76
2022/09/29 07:18:03;;;;;;;;;9.50;9.50;;;;;;;;5078019;28;45402;-74
2022/09/29 07:20:30;;;;;;;;;9.00;9.00;;;;;;;;5077969;27;45408;-76
2022/09/29 07:22:55;;;;;;;;;9.00;9.00;;;;;;;;5079338;28;45812;-74
2022/09/29 07:25:21;;;;;;;;;9.50;9.50;;;;;;;;5077178;28;45397;-75
2022/09/29 07:27:46;;;;;;;;;8.75;8.75;;;;;;;;5079163;28;45357;-75
2022/09/29 07:30:12;;;;;;;;;10.50;10.25;;;;;;;;5061947;28;45320;-75
2022/09/29 07:32:37;;;;;;;;;17.50;16.50;;;;;;;;5060900;28;45279;-75
2022/09/29 07:35:02;;;;;;;;;8.50;8.50;;;;;;;;5078022;28;45569;-74
2022/09/29 07:37:28;;;;;;;;;8.75;8.75;;;;;;;;5058532;28;46962;-76
2022/09/29 07:39:54;;;;;;;;;7.75;7.75;;;;;;;;5085202;28;45394;-77
2022/09/29 07:42:20;;;;;;;;;13.75;13.75;;;;;;;;5079625;28;45335;-74
2022/09/29 07:44:45;;;;;;;;;8.00;8.00;;;;;;;;5059230;28;47090;-77
2022/09/29 07:47:10;;;;;;;;;9.25;9.25;;;;;;;;5075258;27;45453;-74
2022/09/29 07:49:36;;;;;;;;;10.00;10.00;;;;;;;;5077523;28;45307;-75
2022/09/29 07:52:01;;;;;;;;;7.75;7.75;;;;;;;;5078035;28;45603;-75
2022/09/29 07:54:27;;;;;;;;;12.00;11.75;;;;;;;;5077313;28;45508;-73
2022/09/29 07:56:52;;;;;;;;;10.75;10.75;;;;;;;;5074530;28;45643;-75
2022/09/29 07:59:17;;;;;;;;;9.75;9.75;;;;;;;;5061340;28;45397;-75
2022/09/29 08:01:42;;;;;;;;;10.50;10.50;;;;;;;;5080034;28;45446;-74
2022/09/29 08:04:08;;;;;;;;;9.50;9.50;;;;;;;;5079579;28;46348;-75
2022/09/29 08:06:33;;;;;;;;;9.00;9.00;;;;;;;;5079747;28;45240;-74
2022/09/29 08:08:59;;;;;;;;;10.75;10.75;;;;;;;;5079473;28;45280;-75
2022/09/29 08:11:24;;;;;;;;;13.50;13.50;;;;;;;;5079420;28;45521;-76
2022/09/29 08:13:52;;;;;;;;;12.75;12.75;;;;;;;;5061125;28;47433;-74
2022/09/29 08:16:19;;;;;;;;;12.25;12.25;;;;;;;;5080845;28;45279;-75
2022/09/29 08:18:44;;;;;;;;;14.00;14.00;;;;;;;;5081063;28;45393;-76
2022/09/29 08:21:10;;;;;;;;;49.75;42.75;;;;;;;;5062793;28;45192;-74
2022/09/29 08:23:37;;;;;;;;;12.25;12.25;;;;;;;;5082623;28;45383;-75
2022/09/29 08:26:03;;;;;;;;;10.75;10.75;;;;;;;;5062084;28;45415;-73
2022/09/29 08:28:30;;;;;;;;;12.75;12.50;;;;;;;;5079090;28;45301;-74
2022/09/29 08:30:55;;;;;;;;;9.00;9.00;;;;;;;;5079684;28;45407;-74
2022/09/29 08:33:20;;;;;;;;;9.00;9.00;;;;;;;;5079404;28;45523;-76
2022/09/29 08:35:45;;;;;;;;;12.25;12.00;;;;;;;;5079871;27;45389;-76
2022/09/29 08:38:11;;;;;;;;;10.25;10.25;;;;;;;;5080532;28;45379;-76
2022/09/29 08:40:37;;;;;;;;;14.00;14.00;;;;;;;;5079621;28;45503;-76
2022/09/29 08:43:05;;;;;;;;;11.50;11.50;;;;;;;;5078375;28;45731;-74
2022/09/29 08:45:32;;;;;;;;;11.75;11.75;;;;;;;;5078397;28;45343;-75
2022/09/29 08:48:15;;;;;;;;;12.75;12.75;;;;;;;;5079079;28;45387;-74
2022/09/29 08:50:44;;;;;;;;;14.00;14.00;;;;;;;;5060455;28;45592;-75
2022/09/29 08:53:12;;;;;;;;;12.75;12.50;;;;;;;;5078516;28;45526;-74
2022/09/29 08:55:39;;;;;;;;;12.50;12.50;;;;;;;;5078071;28;45312;-74
2022/09/29 08:58:09;;;;;;;;;11.50;11.50;;;;;;;;5078324;28;45275;-75
2022/09/29 09:00:40;;;;;;;;;12.50;12.00;;;;;;;;5078781;27;45307;-75
2022/09/29 09:03:15;;;;;;;;;19.25;19.25;;;;;;;;5079406;28;45593;-76
2022/09/29 09:06:00;;;;;;;;;16.50;16.50;;;;;;;;5061595;28;45379;-75
2022/09/29 09:08:41;;;;;;;;;12.50;12.50;;;;;;;;5077494;28;45865;-73
2022/09/29 09:11:09;;;;;;;;;16.50;16.50;;;;;;;;5078584;28;45363;-73
2022/09/29 09:13:54;;;;;;;;;19.00;19.00;;;;;;;;5079391;28;46265;-76
2022/09/29 09:16:20;;;;;;;;;15.00;14.00;;;;;;;;5059885;28;45303;-73
2022/09/29 09:18:57;;;;;;;;;16.25;16.25;;;;;;;;5059614;28;45292;-76
2022/09/29 09:21:31;;;;;;;;;13.25;13.25;;;;;;;;5079090;28;45307;-75
2022/09/29 09:24:03;;;;;;;;;18.50;17.50;;;;;;;;5060642;28;48552;-74
2022/09/29 09:26:35;;;;;;;;;19.75;19.75;;;;;;;;5059905;28;45186;-73
2022/09/29 09:29:03;;;;;;;;;18.00;18.00;;;;;;;;5078208;28;45404;-75
2022/09/29 09:31:40;;;;;;;;;13.25;13.25;;;;;;;;5060435;28;45320;-74
2022/09/29 09:34:25;;;;;;;;;16.75;15.75;;;;;;;;5078204;28;45422;-74
2022/09/29 09:36:59;;;;;;;;;19.00;19.00;;;;;;;;5078052;28;45308;-76
2022/09/29 09:39:37;;;;;;;;;14.50;14.50;;;;;;;;5077810;28;45216;-75
2022/09/29 09:42:11;;;;;;;;;17.25;16.75;;;;;;;;5077876;28;45574;-75
2022/09/29 09:44:38;;;;;;;;;18.50;18.50;;;;;;;;5076799;28;45337;-75
2022/09/29 09:47:25;;;;;;;;;25.25;25.00;;;;;;;;5076471;27;45388;-75
2022/09/29 09:49:59;;;;;;;;;16.50;16.50;;;;;;;;5058455;27;45321;-75
2022/09/29 09:52:30;;;;;;;;;23.75;23.25;;;;;;;;5058042;28;45511;-74
2022/09/29 09:55:00;;;;;;;;;22.75;21.00;;;;;;;;5075717;28;45760;-75
2022/09/29 09:57:25;;;;;;;;;30.50;30.25;;;;;;;;5075821;28;45264;-75
2022/09/29 09:59:54;;;;;;;;;19.25;17.00;;;;;;;;5076308;28;45332;-74
2022/09/29 10:02:21;;;;;;;;;28.50;27.75;;;;;;;;5058164;28;45487;-75
2022/09/29 10:04:48;;;;;;;;;30.00;29.50;;;;;;;;5057493;28;45495;-75
2022/09/29 10:07:15;;;;;;;;;52.00;44.25;;;;;;;;5057725;28;45518;-75
2022/09/29 10:09:41;;;;;;;;;28.25;28.25;;;;;;;;5076838;28;45512;-74
2022/09/29 10:12:14;;;;;;;;;30.25;28.75;;;;;;;;5076534;28;45586;-75
2022/09/29 10:14:41;;;;;;;;;26.75;26.75;;;;;;;;5058147;28;46983;-73
2022/09/29 10:17:11;;;;;;;;;28.75;28.75;;;;;;;;5076042;27;45300;-75
2022/09/29 10:20:04;;;;;;;;;35.00;33.00;;;;;;;;5076074;28;45402;-76
2022/09/29 10:22:30;;;;;;;;;26.25;25.75;;;;;;;;5073222;27;45220;-74
2022/09/29 10:25:04;;;;;;;;;25.00;25.00;;;;;;;;5075617;28;45730;-75
2022/09/29 10:27:30;;;;;;;;;21.50;21.50;;;;;;;;5075980;28;45228;-75
2022/09/29 10:29:57;;;;;;;;;26.75;26.75;;;;;;;;5075881;28;45275;-75
2022/09/29 10:32:35;;;;;;;;;33.00;31.75;;;;;;;;5076188;28;45305;-74
2022/09/29 10:35:03;;;;;;;;;32.25;30.75;;;;;;;;5076232;28;45561;-75
2022/09/29 10:37:34;;;;;;;;;23.50;23.50;;;;;;;;5075837;28;45438;-73
2022/09/29 10:40:09;;;;;;;;;19.75;19.75;;;;;;;;5075678;28;45290;-75
2022/09/29 10:42:36;;;;;;;;;20.00;20.00;;;;;;;;5076544;28;45425;-74
2022/09/29 10:45:01;;;;;;;;;21.25;20.75;;;;;;;;5076281;28;46792;-74
2022/09/29 10:47:26;;;;;;;;;18.00;18.00;;;;;;;;5075817;28;45264;-74
2022/09/29 10:50:07;;;;;;;;;45.50;39.25;;;;;;;;5076096;28;45345;-75
2022/09/29 10:52:32;;;;;;;;;50.25;42.50;;;;;;;;5057443;28;45705;-76
2022/09/29 10:54:59;;;;;;;;;24.25;24.25;;;;;;;;5075331;28;45339;-75
2022/09/29 10:57:29;;;;;;;;;25.50;25.50;;;;;;;;5076494;28;45418;-75
2022/09/29 10:59:56;;;;;;;;;29.75;28.75;;;;;;;;5058824;28;45339;-75
2022/09/29 11:02:36;;;;;;;;;46.25;40.00;;;;;;;;5077814;28;45367;-75
2022/09/29 11:05:04;;;;;;;;;25.50;23.50;;;;;;;;5075771;28;45949;-75
2022/09/29 11:07:30;;;;;;;;;22.00;20.50;;;;;;;;5076010;28;45394;-74
2022/09/29 11:09:56;;;;;;;;;19.75;18.25;;;;;;;;5076210;28;45368;-75
2022/09/29 11:12:24;;;;;;;;;50.00;42.50;;;;;;;;5057968;28;45583;-74
2022/09/29 11:14:49;;;;;;;;;36.50;33.75;;;;;;;;5075430;28;46273;-75
2022/09/29 11:17:22;;;;;;;;;30.50;30.50;;;;;;;;5057642;28;45419;-74
2022/09/29 11:19:48;;;;;;;;;25.25;25.25;;;;;;;;5075959;28;45426;-75
2022/09/29 11:22:32;;;;;;;;;25.75;25.00;;;;;;;;5075876;28;45403;-73
2022/09/29 11:24:57;;;;;;;;;18.25;18.00;;;;;;;;5075261;28;45812;-75
2022/09/29 11:27:22;;;;;;;;;15.25;15.25;;;;;;;;5075664;28;45405;-76
2022/09/29 11:29:49;;;;;;;;;19.75;19.75;;;;;;;;5076488;28;45365;-74
2022/09/29 11:32:23;;;;;;;;;42.25;37.00;;;;;;;;5058425;28;45454;-76
2022/09/29 11:34:48;;;;;;;;;16.00;16.00;;;;;;;;5078823;27;46430;-77
2022/09/29 11:37:32;;;;;;;;;11.40;11.40;;;;;;;;5079466;28;45418;-75
2022/09/29 11:39:58;;;;;;;;;16.50;16.50;;;;;;;;5080554;28;45481;-76
2022/09/29 11:42:42;;;;;;;;;9.25;9.25;;;;;;;;5080000;28;45448;-75
2022/09/29 11:45:13;;;;;;;;;15.00;15.00;;;;;;;;5060115;28;47201;-75
2022/09/29 11:47:41;;;;;;;;;56.75;46.75;;;;;;;;5078620;28;45390;-75
2022/09/29 11:50:06;;;;;;;;;22.25;21.50;;;;;;;;5078818;28;45354;-77
2022/09/29 11:52:35;;;;;;;;;23.25;22.75;;;;;;;;5079736;28;45299;-75
2022/09/29 11:55:06;;;;;;;;;18.25;18.25;;;;;;;;5080014;28;46640;-75
2022/09/29 11:57:40;;;;;;;;;18.00;18.00;;;;;;;;5079700;28;45315;-75
2022/09/29 12:00:17;;;;;;;;;23.50;23.50;;;;;;;;5060732;28;45267;-74
2022/09/29 12:03:01;;;;;;;;;53.75;45.25;;;;;;;;5079984;28;45532;-74
2022/09/29 12:05:54;;;;;;;;;21.00;21.00;;;;;;;;5061042;28;47255;-74
2022/09/29 12:08:31;;;;;;;;;13.25;13.25;;;;;;;;5060135;28;45365;-73
2022/09/29 12:11:00;;;;;;;;;11.75;11.75;;;;;;;;5078721;28;45181;-74
2022/09/29 12:13:26;;;;;;;;;10.25;10.25;;;;;;;;5059774;28;45442;-75
2022/09/29 12:16:24;;;;;;;;;10.00;10.00;;;;;;;;5078437;28;46204;-74
2022/09/29 12:18:52;;;;;;;;;13.50;13.50;;;;;;;;5027570;28;45943;-76
2022/09/29 12:21:54;;;;;;;;;12.00;12.00;;;;;;;;5080014;28;45493;-75
2022/09/29 12:24:24;;;;;;;;;15.25;15.25;;;;;;;;4997655;28;45264;-76
2022/09/29 12:26:51;;;;;;;;;16.50;16.25;;;;;;;;5046764;28;48690;-72
2022/09/29 12:29:25;;;;;;;;;16.50;16.50;;;;;;;;5079062;27;45433;-74
2022/09/29 12:31:51;;;;;;;;;14.25;14.25;;;;;;;;5079408;27;45346;-75
2022/09/29 12:34:19;;;;;;;;;12.50;12.50;;;;;;;;5044869;28;45558;-76
2022/09/29 12:36:52;;;;;;;;;13.50;13.50;;;;;;;;5078654;27;46725;-75
2022/09/29 12:39:32;;;;;;;;;8.75;8.75;;;;;;;;5077853;28;45447;-76
2022/09/29 12:42:20;;;;;;;;;12.00;12.00;;;;;;;;5077674;28;45234;-74
2022/09/29 12:45:04;;;;;;;;;12.00;12.00;;;;;;;;5039072;28;45321;-76
2022/09/29 12:47:44;;;;;;;;;14.50;14.50;;;;;;;;5059351;28;47318;-75
2022/09/29 12:50:15;;;;;;;;;16.00;16.00;;;;;;;;5077255;28;45394;-76
2022/09/29 12:52:47;;;;;;;;;15.25;15.25;;;;;;;;5077669;28;45521;-76
2022/09/29 12:55:24;;;;;;;;;11.00;11.00;;;;;;;;5077584;28;45294;-74
2022/09/29 12:57:52;;;;;;;;;12.25;12.25;;;;;;;;5077422;28;45335;-75
2022/09/29 13:00:18;;;;;;;;;21.50;20.75;;;;;;;;5077117;27;45307;-75
2022/09/29 13:03:08;;;;;;;;;18.25;16.75;;;;;;;;5077426;28;45556;-75
2022/09/29 13:05:34;;;;;;;;;24.25;24.25;;;;;;;;5077516;28;45394;-75
2022/09/29 13:08:00;;;;;;;;;24.75;24.75;;;;;;;;5076819;28;46227;-75
2022/09/29 13:10:38;;;;;;;;;19.25;19.25;;;;;;;;5077010;28;45351;-74
2022/09/29 13:13:04;;;;;;;;;13.75;13.75;;;;;;;;5077106;28;45409;-75
2022/09/29 13:15:47;;;;;;;;;15.25;15.25;;;;;;;;5077347;28;45181;-75
2022/09/29 13:18:21;;;;;;;;;19.50;19.50;;;;;;;;5076740;28;46661;-76
2022/09/29 13:21:06;;;;;;;;;17.00;17.00;;;;;;;;5077591;28;45409;-75
2022/09/29 13:23:38;;;;;;;;;14.50;13.75;;;;;;;;5077583;28;45280;-74
2022/09/29 13:26:32;;;;;;;;;18.00;18.00;;;;;;;;5059142;28;45452;-74
2022/09/29 13:29:07;;;;;;;;;13.25;13.25;;;;;;;;5059106;28;45600;-74
2022/09/29 13:31:36;;;;;;;;;14.50;13.75;;;;;;;;5077769;28;45382;-77
2022/09/29 13:34:02;;;;;;;;;13.50;13.50;;;;;;;;5077502;28;45464;-74
2022/09/29 13:36:35;;;;;;;;;12.00;11.50;;;;;;;;5078023;28;45283;-75
2022/09/29 13:39:01;;;;;;;;;14.25;14.25;;;;;;;;5059070;28;45741;-74
2022/09/29 13:41:30;;;;;;;;;12.75;12.75;;;;;;;;5077520;28;45355;-74
2022/09/29 13:43:56;;;;;;;;;12.00;12.00;;;;;;;;5059207;28;45465;-73
2022/09/29 13:46:30;;;;;;;;;19.00;19.00;;;;;;;;5077701;27;45524;-75
2022/09/29 13:49:19;;;;;;;;;24.75;21.75;;;;;;;;5077089;28;45574;-75
2022/09/29 13:51:49;;;;;;;;;7.75;7.75;;;;;;;;5066183;28;45316;-75
2022/09/29 13:54:21;;;;;;;;;11.00;10.75;;;;;;;;5076626;28;45437;-74
2022/09/29 13:56:48;;;;;;;;;16.25;16.25;;;;;;;;5076029;28;45420;-74
2022/09/29 13:59:14;;;;;;;;;9.00;9.00;;;;;;;;5077270;28;46635;-75
2022/09/29 14:01:40;;;;;;;;;9.50;9.00;;;;;;;;5077372;28;45308;-76
2022/09/29 14:04:24;;;;;;;;;7.25;7.25;;;;;;;;5076462;28;45331;-75
2022/09/29 14:06:51;;;;;;;;;9.00;9.00;;;;;;;;5076296;28;45496;-76
2022/09/29 14:09:18;;;;;;;;;8.00;8.00;;;;;;;;5057706;28;46287;-75
2022/09/29 14:11:49;;;;;;;;;9.00;9.00;;;;;;;;5077898;28;45360;-77
2022/09/29 14:14:14;;;;;;;;;10.25;10.25;;;;;;;;5078437;28;45313;-78
2022/09/29 14:17:00;;;;;;;;;9.00;9.00;;;;;;;;5077123;28;45163;-77
2022/09/29 14:19:34;;;;;;;;;11.25;11.25;;;;;;;;5076123;28;45627;-75
2022/09/29 14:22:00;;;;;;;;;13.25;13.25;;;;;;;;5075363;28;45377;-74
2022/09/29 14:24:41;;;;;;;;;11.50;11.50;;;;;;;;5076116;28;45338;-75
2022/09/29 14:27:38;;;;;;;;;12.50;12.50;;;;;;;;5077208;28;45259;-74
2022/09/29 14:30:12;;;;;;;;;14.50;14.50;;;;;;;;5024521;28;47964;-76
2022/09/29 14:32:56;;;;;;;;;10.75;10.75;;;;;;;;5076387;28;45346;-77
2022/09/29 14:35:29;;;;;;;;;8.00;8.00;;;;;;;;5075993;28;45406;-77
2022/09/29 14:38:16;;;;;;;;;7.25;7.25;;;;;;;;5058275;28;45314;-75
2022/09/29 14:40:55;;;;;;;;;6.25;6.25;;;;;;;;5076140;28;46311;-75
2022/09/29 14:43:23;;;;;;;;;11.00;11.00;;;;;;;;5076318;28;45187;-76
2022/09/29 14:51:59;;;;;;;;;12.00;12.00;;;;;;;;5076136;28;45434;-73
2022/09/29 14:54:36;;;;;;;;;11.00;11.00;;;;;;;;5074973;28;45322;-75